sensor_id;sensor_type;location;lat;lon;timestamp;temperature;humidity
5364;DHT22;2705;41.410;2.160;2023-05-07T00:01:16;19.90;99.90
5364;DHT22;2705;41.410;2.160;2023-05-07T00:03:46;20.00;99.90
5364;DHT22;2705;41.410;2.160;2023-05-07T00:06:16;20.00;99.90
5364;DHT22;2705;41.410;2.160;2023-05-07T00:08:44;19.70;99.90
5364;DHT22;2705;41.410;2.160;2023-05-07T00:11:14;19.70;99.90
5364;DHT22;2705;41.410;2.160;2023-05-07T00:13:44;19.80;99.90
5364;DHT22;2705;41.410;2.160;2023-05-07T00:16:13;19.80;99.90
5364;DHT22;2705;41.410;2.160;2023-05-07T00:18:42;19.80;99.90
5364;DHT22;2705;41.410;2.160;2023-05-07T00:21:12;19.80;99.90
5364;DHT22;2705;41.410;2.160;2023-05-07T00:23:41;19.80;99.90
5364;DHT22;2705;41.410;2.160;2023-05-07T00:26:10;19.90;99.90
5364;DHT22;2705;41.410;2.160;2023-05-07T00:28:40;19.90;99.90
5364;DHT22;2705;41.410;2.160;2023-05-07T00:31:11;19.80;99.90
5364;DHT22;2705;41.410;2.160;2023-05-07T00:33:40;19.70;99.90
5364;DHT22;2705;41.410;2.160;2023-05-07T00:36:09;19.60;99.90
5364;DHT22;2705;41.410;2.160;2023-05-07T00:38:38;19.50;99.90
5364;DHT22;2705;41.410;2.160;2023-05-07T00:41:07;19.60;99.90
5364;DHT22;2705;41.410;2.160;2023-05-07T00:43:36;19.80;99.90
5364;DHT22;2705;41.410;2.160;2023-05-07T00:46:05;19.80;99.90
5364;DHT22;2705;41.410;2.160;2023-05-07T00:48:36;19.60;99.90
5364;DHT22;2705;41.410;2.160;2023-05-07T00:51:05;19.60;99.90
5364;DHT22;2705;41.410;2.160;2023-05-07T00:53:34;19.50;99.90
5364;DHT22;2705;41.410;2.160;2023-05-07T00:56:04;19.60;99.90
5364;DHT22;2705;41.410;2.160;2023-05-07T00:58:34;19.60;99.90
5364;DHT22;2705;41.410;2.160;2023-05-07T01:01:06;19.60;99.90
5364;DHT22;2705;41.410;2.160;2023-05-07T01:03:36;19.50;99.90
5364;DHT22;2705;41.410;2.160;2023-05-07T01:06:06;19.40;99.90
5364;DHT22;2705;41.410;2.160;2023-05-07T01:08:36;19.30;99.90
5364;DHT22;2705;41.410;2.160;2023-05-07T01:11:07;19.40;99.90
5364;DHT22;2705;41.410;2.160;2023-05-07T01:13:37;19.30;99.90
5364;DHT22;2705;41.410;2.160;2023-05-07T01:16:08;19.30;99.90
5364;DHT22;2705;41.410;2.160;2023-05-07T01:18:40;19.40;99.90
5364;DHT22;2705;41.410;2.160;2023-05-07T01:21:11;19.60;99.90
5364;DHT22;2705;41.410;2.160;2023-05-07T01:23:42;19.40;99.90
5364;DHT22;2705;41.410;2.160;2023-05-07T01:26:11;19.50;99.90
5364;DHT22;2705;41.410;2.160;2023-05-07T01:28:45;19.60;99.90
5364;DHT22;2705;41.410;2.160;2023-05-07T01:31:15;19.70;99.90
5364;DHT22;2705;41.410;2.160;2023-05-07T01:33:46;19.80;99.90
5364;DHT22;2705;41.410;2.160;2023-05-07T01:36:18;19.80;99.90
5364;DHT22;2705;41.410;2.160;2023-05-07T01:38:52;19.70;99.90
5364;DHT22;2705;41.410;2.160;2023-05-07T01:41:21;19.70;99.90
5364;DHT22;2705;41.410;2.160;2023-05-07T01:43:52;19.60;99.90
5364;DHT22;2705;41.410;2.160;2023-05-07T01:46:21;19.60;99.90
5364;DHT22;2705;41.410;2.160;2023-05-07T01:48:51;19.50;99.90
5364;DHT22;2705;41.410;2.160;2023-05-07T01:51:21;19.60;99.90
5364;DHT22;2705;41.410;2.160;2023-05-07T01:53:52;19.60;99.90
5364;DHT22;2705;41.410;2.160;2023-05-07T01:56:23;19.70;99.90
5364;DHT22;2705;41.410;2.160;2023-05-07T01:58:52;19.50;99.90
5364;DHT22;2705;41.410;2.160;2023-05-07T02:01:21;19.50;99.90
5364;DHT22;2705;41.410;2.160;2023-05-07T02:03:50;19.60;99.90
5364;DHT22;2705;41.410;2.160;2023-05-07T02:06:24;19.60;99.90
5364;DHT22;2705;41.410;2.160;2023-05-07T02:09:00;19.50;99.90
5364;DHT22;2705;41.410;2.160;2023-05-07T02:11:29;19.40;99.90
5364;DHT22;2705;41.410;2.160;2023-05-07T02:13:58;19.40;99.90
5364;DHT22;2705;41.410;2.160;2023-05-07T02:16:28;19.30;99.90
5364;DHT22;2705;41.410;2.160;2023-05-07T02:18:56;19.30;99.90
5364;DHT22;2705;41.410;2.160;2023-05-07T02:21:26;19.20;99.90
5364;DHT22;2705;41.410;2.160;2023-05-07T02:23:57;19.10;99.90
5364;DHT22;2705;41.410;2.160;2023-05-07T02:26:28;19.20;99.90
5364;DHT22;2705;41.410;2.160;2023-05-07T02:28:57;19.20;99.90
5364;DHT22;2705;41.410;2.160;2023-05-07T02:31:26;19.10;99.90
5364;DHT22;2705;41.410;2.160;2023-05-07T02:33:55;19.00;99.90
5364;DHT22;2705;41.410;2.160;2023-05-07T02:36:24;19.30;99.90
5364;DHT22;2705;41.410;2.160;2023-05-07T02:39:00;19.20;99.90
5364;DHT22;2705;41.410;2.160;2023-05-07T02:41:31;19.20;99.90
5364;DHT22;2705;41.410;2.160;2023-05-07T02:44:00;19.10;99.90
5364;DHT22;2705;41.410;2.160;2023-05-07T02:46:29;19.10;99.90
5364;DHT22;2705;41.410;2.160;2023-05-07T02:49:03;19.10;99.90
5364;DHT22;2705;41.410;2.160;2023-05-07T02:51:33;19.10;99.90
5364;DHT22;2705;41.410;2.160;2023-05-07T02:54:07;19.10;99.90
5364;DHT22;2705;41.410;2.160;2023-05-07T02:56:38;19.20;99.90
5364;DHT22;2705;41.410;2.160;2023-05-07T02:59:07;19.30;99.90
5364;DHT22;2705;41.410;2.160;2023-05-07T03:01:39;19.50;99.90
5364;DHT22;2705;41.410;2.160;2023-05-07T03:04:12;19.50;99.90
5364;DHT22;2705;41.410;2.160;2023-05-07T03:06:41;19.30;99.90
5364;DHT22;2705;41.410;2.160;2023-05-07T03:09:10;19.50;99.90
5364;DHT22;2705;41.410;2.160;2023-05-07T03:11:41;19.50;99.90
5364;DHT22;2705;41.410;2.160;2023-05-07T03:14:10;19.50;99.90
5364;DHT22;2705;41.410;2.160;2023-05-07T03:16:40;19.40;99.90
5364;DHT22;2705;41.410;2.160;2023-05-07T03:19:09;19.30;99.90
5364;DHT22;2705;41.410;2.160;2023-05-07T03:21:38;19.20;99.90
5364;DHT22;2705;41.410;2.160;2023-05-07T03:24:07;19.40;99.90
5364;DHT22;2705;41.410;2.160;2023-05-07T03:26:37;19.40;99.90
5364;DHT22;2705;41.410;2.160;2023-05-07T03:29:07;19.40;99.90
5364;DHT22;2705;41.410;2.160;2023-05-07T03:31:36;19.20;99.90
5364;DHT22;2705;41.410;2.160;2023-05-07T03:34:05;19.30;99.90
5364;DHT22;2705;41.410;2.160;2023-05-07T03:36:34;19.20;99.90
5364;DHT22;2705;41.410;2.160;2023-05-07T03:39:06;19.30;99.90
5364;DHT22;2705;41.410;2.160;2023-05-07T03:41:39;19.20;99.90
5364;DHT22;2705;41.410;2.160;2023-05-07T03:44:10;19.20;99.90
5364;DHT22;2705;41.410;2.160;2023-05-07T03:46:41;19.30;99.90
5364;DHT22;2705;41.410;2.160;2023-05-07T03:49:11;19.30;99.90
5364;DHT22;2705;41.410;2.160;2023-05-07T03:51:40;19.20;99.90
5364;DHT22;2705;41.410;2.160;2023-05-07T03:54:09;19.00;99.90
5364;DHT22;2705;41.410;2.160;2023-05-07T03:56:43;19.10;99.90
5364;DHT22;2705;41.410;2.160;2023-05-07T03:59:14;19.10;99.90
5364;DHT22;2705;41.410;2.160;2023-05-07T04:01:45;19.00;99.90
5364;DHT22;2705;41.410;2.160;2023-05-07T04:04:16;18.80;99.90
5364;DHT22;2705;41.410;2.160;2023-05-07T04:06:46;18.80;99.90
5364;DHT22;2705;41.410;2.160;2023-05-07T04:09:15;18.90;99.90
5364;DHT22;2705;41.410;2.160;2023-05-07T04:11:46;18.80;99.90
5364;DHT22;2705;41.410;2.160;2023-05-07T04:14:17;18.70;99.90
5364;DHT22;2705;41.410;2.160;2023-05-07T04:16:46;18.60;99.90
5364;DHT22;2705;41.410;2.160;2023-05-07T04:19:15;18.50;99.90
5364;DHT22;2705;41.410;2.160;2023-05-07T04:21:51;18.40;99.90
5364;DHT22;2705;41.410;2.160;2023-05-07T04:24:20;18.60;99.90
5364;DHT22;2705;41.410;2.160;2023-05-07T04:26:50;18.60;99.90
5364;DHT22;2705;41.410;2.160;2023-05-07T04:29:22;18.50;99.90
5364;DHT22;2705;41.410;2.160;2023-05-07T04:31:52;18.60;99.90
5364;DHT22;2705;41.410;2.160;2023-05-07T04:34:23;18.80;99.90
5364;DHT22;2705;41.410;2.160;2023-05-07T04:36:53;18.90;99.90
5364;DHT22;2705;41.410;2.160;2023-05-07T04:39:22;18.70;99.90
5364;DHT22;2705;41.410;2.160;2023-05-07T04:41:51;18.80;99.90
5364;DHT22;2705;41.410;2.160;2023-05-07T04:44:21;18.80;99.90
5364;DHT22;2705;41.410;2.160;2023-05-07T04:46:50;18.80;99.90
5364;DHT22;2705;41.410;2.160;2023-05-07T04:49:19;18.80;99.90
5364;DHT22;2705;41.410;2.160;2023-05-07T04:51:50;18.80;99.90
5364;DHT22;2705;41.410;2.160;2023-05-07T04:54:22;18.70;99.90
5364;DHT22;2705;41.410;2.160;2023-05-07T04:56:51;18.60;99.90
5364;DHT22;2705;41.410;2.160;2023-05-07T04:59:22;18.60;99.90
5364;DHT22;2705;41.410;2.160;2023-05-07T05:01:51;18.70;99.90
5364;DHT22;2705;41.410;2.160;2023-05-07T05:04:21;18.70;99.90
5364;DHT22;2705;41.410;2.160;2023-05-07T05:06:50;18.80;99.90
5364;DHT22;2705;41.410;2.160;2023-05-07T05:09:19;18.80;99.90
5364;DHT22;2705;41.410;2.160;2023-05-07T05:11:48;18.90;99.90
5364;DHT22;2705;41.410;2.160;2023-05-07T05:14:17;18.80;99.90
5364;DHT22;2705;41.410;2.160;2023-05-07T05:16:48;18.90;99.90
5364;DHT22;2705;41.410;2.160;2023-05-07T05:19:17;18.80;99.90
5364;DHT22;2705;41.410;2.160;2023-05-07T05:21:47;18.70;99.90
5364;DHT22;2705;41.410;2.160;2023-05-07T05:24:16;18.70;99.90
5364;DHT22;2705;41.410;2.160;2023-05-07T05:26:45;19.00;99.90
5364;DHT22;2705;41.410;2.160;2023-05-07T05:29:14;18.90;99.90
5364;DHT22;2705;41.410;2.160;2023-05-07T05:31:43;19.10;99.90
5364;DHT22;2705;41.410;2.160;2023-05-07T05:34:14;19.10;99.90
5364;DHT22;2705;41.410;2.160;2023-05-07T05:36:44;19.20;99.90
5364;DHT22;2705;41.410;2.160;2023-05-07T05:39:15;19.10;99.90
5364;DHT22;2705;41.410;2.160;2023-05-07T05:41:44;19.10;99.90
5364;DHT22;2705;41.410;2.160;2023-05-07T05:44:14;19.10;99.90
5364;DHT22;2705;41.410;2.160;2023-05-07T05:46:43;19.20;99.90
5364;DHT22;2705;41.410;2.160;2023-05-07T05:49:14;19.20;99.90
5364;DHT22;2705;41.410;2.160;2023-05-07T05:51:43;19.30;99.90
5364;DHT22;2705;41.410;2.160;2023-05-07T05:54:13;19.40;99.90
5364;DHT22;2705;41.410;2.160;2023-05-07T05:56:42;19.30;99.90
5364;DHT22;2705;41.410;2.160;2023-05-07T05:59:13;19.40;99.90
5364;DHT22;2705;41.410;2.160;2023-05-07T06:01:42;19.50;99.90
5364;DHT22;2705;41.410;2.160;2023-05-07T06:04:11;19.40;99.90
5364;DHT22;2705;41.410;2.160;2023-05-07T06:06:43;19.50;99.90
5364;DHT22;2705;41.410;2.160;2023-05-07T06:09:12;19.60;99.90
5364;DHT22;2705;41.410;2.160;2023-05-07T06:11:43;19.70;99.90
5364;DHT22;2705;41.410;2.160;2023-05-07T06:14:13;19.60;99.90
5364;DHT22;2705;41.410;2.160;2023-05-07T06:16:42;19.60;99.90
5364;DHT22;2705;41.410;2.160;2023-05-07T06:19:11;19.80;99.90
5364;DHT22;2705;41.410;2.160;2023-05-07T06:21:43;19.90;99.90
5364;DHT22;2705;41.410;2.160;2023-05-07T06:24:12;20.00;99.90
5364;DHT22;2705;41.410;2.160;2023-05-07T06:26:41;20.10;99.90
5364;DHT22;2705;41.410;2.160;2023-05-07T06:29:10;20.40;99.90
5364;DHT22;2705;41.410;2.160;2023-05-07T06:31:41;20.60;99.90
5364;DHT22;2705;41.410;2.160;2023-05-07T06:34:11;20.60;99.90
5364;DHT22;2705;41.410;2.160;2023-05-07T06:36:43;20.40;99.90
5364;DHT22;2705;41.410;2.160;2023-05-07T06:39:29;20.40;99.90
5364;DHT22;2705;41.410;2.160;2023-05-07T06:41:58;20.40;99.90
5364;DHT22;2705;41.410;2.160;2023-05-07T06:44:31;20.50;99.90
5364;DHT22;2705;41.410;2.160;2023-05-07T06:47:12;20.60;99.90
5364;DHT22;2705;41.410;2.160;2023-05-07T06:49:45;20.30;99.90
5364;DHT22;2705;41.410;2.160;2023-05-07T06:52:18;20.00;99.90
5364;DHT22;2705;41.410;2.160;2023-05-07T06:54:50;20.10;99.90
5364;DHT22;2705;41.410;2.160;2023-05-07T06:57:22;20.40;99.90
5364;DHT22;2705;41.410;2.160;2023-05-07T06:59:51;20.40;99.90
5364;DHT22;2705;41.410;2.160;2023-05-07T07:02:21;20.30;99.90
5364;DHT22;2705;41.410;2.160;2023-05-07T07:04:50;20.30;99.90
5364;DHT22;2705;41.410;2.160;2023-05-07T07:07:21;20.20;99.90
5364;DHT22;2705;41.410;2.160;2023-05-07T07:09:50;20.10;99.90
5364;DHT22;2705;41.410;2.160;2023-05-07T07:12:19;20.10;99.90
5364;DHT22;2705;41.410;2.160;2023-05-07T07:14:50;20.20;99.90
5364;DHT22;2705;41.410;2.160;2023-05-07T07:17:22;20.10;99.90
5364;DHT22;2705;41.410;2.160;2023-05-07T07:19:51;20.10;99.90
5364;DHT22;2705;41.410;2.160;2023-05-07T07:22:22;20.20;99.90
5364;DHT22;2705;41.410;2.160;2023-05-07T07:24:51;20.10;99.90
5364;DHT22;2705;41.410;2.160;2023-05-07T07:27:20;19.70;99.90
5364;DHT22;2705;41.410;2.160;2023-05-07T07:29:49;19.70;99.90
5364;DHT22;2705;41.410;2.160;2023-05-07T07:32:19;19.90;99.90
5364;DHT22;2705;41.410;2.160;2023-05-07T07:34:48;19.80;99.90
5364;DHT22;2705;41.410;2.160;2023-05-07T07:37:17;19.80;99.90
5364;DHT22;2705;41.410;2.160;2023-05-07T07:39:48;19.90;99.90
5364;DHT22;2705;41.410;2.160;2023-05-07T07:42:17;19.80;99.90
5364;DHT22;2705;41.410;2.160;2023-05-07T07:44:46;19.80;99.90
5364;DHT22;2705;41.410;2.160;2023-05-07T07:47:17;19.70;99.90
5364;DHT22;2705;41.410;2.160;2023-05-07T07:49:48;19.90;99.90
5364;DHT22;2705;41.410;2.160;2023-05-07T07:52:18;20.00;99.90
5364;DHT22;2705;41.410;2.160;2023-05-07T07:54:49;20.00;99.90
5364;DHT22;2705;41.410;2.160;2023-05-07T07:57:20;20.00;99.90
5364;DHT22;2705;41.410;2.160;2023-05-07T07:59:50;20.00;99.90
5364;DHT22;2705;41.410;2.160;2023-05-07T08:02:20;20.10;99.90
5364;DHT22;2705;41.410;2.160;2023-05-07T08:04:50;20.30;99.90
5364;DHT22;2705;41.410;2.160;2023-05-07T08:07:19;20.30;99.90
5364;DHT22;2705;41.410;2.160;2023-05-07T08:09:52;20.30;99.90
5364;DHT22;2705;41.410;2.160;2023-05-07T08:12:24;20.60;99.90
5364;DHT22;2705;41.410;2.160;2023-05-07T08:14:54;20.80;99.90
5364;DHT22;2705;41.410;2.160;2023-05-07T08:17:23;20.70;99.90
5364;DHT22;2705;41.410;2.160;2023-05-07T08:19:53;20.50;99.90
5364;DHT22;2705;41.410;2.160;2023-05-07T08:22:22;20.70;99.90
5364;DHT22;2705;41.410;2.160;2023-05-07T08:24:53;20.20;99.90
5364;DHT22;2705;41.410;2.160;2023-05-07T08:27:22;20.40;99.90
5364;DHT22;2705;41.410;2.160;2023-05-07T08:29:51;20.60;99.90
5364;DHT22;2705;41.410;2.160;2023-05-07T08:32:22;20.90;99.90
5364;DHT22;2705;41.410;2.160;2023-05-07T08:34:51;20.60;99.90
5364;DHT22;2705;41.410;2.160;2023-05-07T08:37:20;20.50;99.90
5364;DHT22;2705;41.410;2.160;2023-05-07T08:39:49;20.40;99.90
5364;DHT22;2705;41.410;2.160;2023-05-07T08:42:23;20.30;99.90
5364;DHT22;2705;41.410;2.160;2023-05-07T08:44:57;20.40;99.90
5364;DHT22;2705;41.410;2.160;2023-05-07T08:47:34;20.40;99.90
5364;DHT22;2705;41.410;2.160;2023-05-07T08:50:06;20.60;99.90
5364;DHT22;2705;41.410;2.160;2023-05-07T08:52:37;20.70;99.90
5364;DHT22;2705;41.410;2.160;2023-05-07T08:55:07;20.60;99.90
5364;DHT22;2705;41.410;2.160;2023-05-07T08:57:38;20.90;99.90
5364;DHT22;2705;41.410;2.160;2023-05-07T09:00:11;20.90;99.90
5364;DHT22;2705;41.410;2.160;2023-05-07T09:02:42;21.20;99.90
5364;DHT22;2705;41.410;2.160;2023-05-07T09:05:12;21.60;99.90
5364;DHT22;2705;41.410;2.160;2023-05-07T09:07:41;21.60;99.90
5364;DHT22;2705;41.410;2.160;2023-05-07T09:10:13;21.70;99.90
5364;DHT22;2705;41.410;2.160;2023-05-07T09:12:48;21.70;99.90
5364;DHT22;2705;41.410;2.160;2023-05-07T09:15:18;22.00;99.90
5364;DHT22;2705;41.410;2.160;2023-05-07T09:17:47;22.30;99.90
5364;DHT22;2705;41.410;2.160;2023-05-07T09:20:17;22.50;99.90
5364;DHT22;2705;41.410;2.160;2023-05-07T09:22:46;23.00;99.90
5364;DHT22;2705;41.410;2.160;2023-05-07T09:25:28;23.30;99.90
5364;DHT22;2705;41.410;2.160;2023-05-07T09:28:02;23.00;99.90
5364;DHT22;2705;41.410;2.160;2023-05-07T09:30:32;23.00;99.90
5364;DHT22;2705;41.410;2.160;2023-05-07T09:33:05;23.00;99.90
5364;DHT22;2705;41.410;2.160;2023-05-07T09:35:37;22.70;99.90
5364;DHT22;2705;41.410;2.160;2023-05-07T09:38:12;23.00;99.90
5364;DHT22;2705;41.410;2.160;2023-05-07T09:40:42;23.30;99.90
5364;DHT22;2705;41.410;2.160;2023-05-07T09:43:16;22.80;99.90
5364;DHT22;2705;41.410;2.160;2023-05-07T09:45:52;23.10;99.90
5364;DHT22;2705;41.410;2.160;2023-05-07T09:48:25;23.10;99.90
5364;DHT22;2705;41.410;2.160;2023-05-07T09:50:57;23.40;99.90
5364;DHT22;2705;41.410;2.160;2023-05-07T09:53:33;23.40;99.90
5364;DHT22;2705;41.410;2.160;2023-05-07T09:56:05;23.30;99.90
5364;DHT22;2705;41.410;2.160;2023-05-07T09:58:37;23.40;99.90
5364;DHT22;2705;41.410;2.160;2023-05-07T10:01:07;23.50;99.90
5364;DHT22;2705;41.410;2.160;2023-05-07T10:03:38;23.90;99.90
5364;DHT22;2705;41.410;2.160;2023-05-07T10:06:10;23.60;99.90
5364;DHT22;2705;41.410;2.160;2023-05-07T10:08:41;23.50;99.90
5364;DHT22;2705;41.410;2.160;2023-05-07T10:11:11;23.70;99.90
5364;DHT22;2705;41.410;2.160;2023-05-07T10:13:46;23.40;99.90
5364;DHT22;2705;41.410;2.160;2023-05-07T10:16:17;23.40;99.90
5364;DHT22;2705;41.410;2.160;2023-05-07T10:18:48;23.80;99.90
5364;DHT22;2705;41.410;2.160;2023-05-07T10:21:23;23.40;99.90
5364;DHT22;2705;41.410;2.160;2023-05-07T10:24:00;23.40;99.90
5364;DHT22;2705;41.410;2.160;2023-05-07T10:26:35;23.30;99.90
5364;DHT22;2705;41.410;2.160;2023-05-07T10:29:14;23.90;99.90
5364;DHT22;2705;41.410;2.160;2023-05-07T10:31:54;23.20;99.90
5364;DHT22;2705;41.410;2.160;2023-05-07T10:34:27;23.70;99.90
5364;DHT22;2705;41.410;2.160;2023-05-07T10:36:58;23.90;99.90
5364;DHT22;2705;41.410;2.160;2023-05-07T10:39:30;23.70;99.90
5364;DHT22;2705;41.410;2.160;2023-05-07T10:42:08;23.50;99.90
5364;DHT22;2705;41.410;2.160;2023-05-07T10:44:41;23.30;99.90
5364;DHT22;2705;41.410;2.160;2023-05-07T10:47:16;23.50;99.90
5364;DHT22;2705;41.410;2.160;2023-05-07T10:50:20;23.70;99.90
5364;DHT22;2705;41.410;2.160;2023-05-07T10:53:23;23.50;99.90
5364;DHT22;2705;41.410;2.160;2023-05-07T10:56:27;23.50;99.90
5364;DHT22;2705;41.410;2.160;2023-05-07T10:59:42;22.80;99.90
5364;DHT22;2705;41.410;2.160;2023-05-07T11:02:20;23.00;99.90
5364;DHT22;2705;41.410;2.160;2023-05-07T11:05:20;22.80;99.90
5364;DHT22;2705;41.410;2.160;2023-05-07T11:08:01;22.80;99.90
5364;DHT22;2705;41.410;2.160;2023-05-07T11:10:49;23.00;99.90
5364;DHT22;2705;41.410;2.160;2023-05-07T11:13:43;23.30;99.90
5364;DHT22;2705;41.410;2.160;2023-05-07T11:16:24;23.50;99.90
5364;DHT22;2705;41.410;2.160;2023-05-07T11:19:50;23.40;99.90
5364;DHT22;2705;41.410;2.160;2023-05-07T11:22:48;23.60;99.90
5364;DHT22;2705;41.410;2.160;2023-05-07T11:25:38;23.70;99.90
5364;DHT22;2705;41.410;2.160;2023-05-07T11:28:16;23.40;99.90
5364;DHT22;2705;41.410;2.160;2023-05-07T11:30:54;23.10;99.90
5364;DHT22;2705;41.410;2.160;2023-05-07T11:33:26;23.00;99.90
5364;DHT22;2705;41.410;2.160;2023-05-07T11:35:57;23.00;99.90
5364;DHT22;2705;41.410;2.160;2023-05-07T11:38:35;23.70;99.90
5364;DHT22;2705;41.410;2.160;2023-05-07T11:41:05;23.40;99.90
5364;DHT22;2705;41.410;2.160;2023-05-07T11:43:34;23.40;99.90
5364;DHT22;2705;41.410;2.160;2023-05-07T11:46:09;23.00;99.90
5364;DHT22;2705;41.410;2.160;2023-05-07T11:48:40;23.10;99.90
5364;DHT22;2705;41.410;2.160;2023-05-07T11:51:09;23.30;99.90
5364;DHT22;2705;41.410;2.160;2023-05-07T11:53:40;23.50;99.90
5364;DHT22;2705;41.410;2.160;2023-05-07T11:56:11;23.40;99.90
5364;DHT22;2705;41.410;2.160;2023-05-07T11:58:42;23.40;99.90
5364;DHT22;2705;41.410;2.160;2023-05-07T12:01:12;23.10;99.90
5364;DHT22;2705;41.410;2.160;2023-05-07T12:03:44;23.30;99.90
5364;DHT22;2705;41.410;2.160;2023-05-07T12:06:16;23.40;99.90
5364;DHT22;2705;41.410;2.160;2023-05-07T12:08:46;23.60;99.90
5364;DHT22;2705;41.410;2.160;2023-05-07T12:11:22;23.60;99.90
5364;DHT22;2705;41.410;2.160;2023-05-07T12:13:54;23.70;99.90
5364;DHT22;2705;41.410;2.160;2023-05-07T12:16:26;23.70;99.90
5364;DHT22;2705;41.410;2.160;2023-05-07T12:18:58;23.90;99.90
5364;DHT22;2705;41.410;2.160;2023-05-07T12:21:27;24.00;99.90
5364;DHT22;2705;41.410;2.160;2023-05-07T12:23:57;23.90;99.90
5364;DHT22;2705;41.410;2.160;2023-05-07T12:26:26;23.80;99.90
5364;DHT22;2705;41.410;2.160;2023-05-07T12:28:57;24.30;99.90
5364;DHT22;2705;41.410;2.160;2023-05-07T12:31:26;24.20;99.90
5364;DHT22;2705;41.410;2.160;2023-05-07T12:33:57;24.40;99.90
5364;DHT22;2705;41.410;2.160;2023-05-07T12:36:26;23.60;99.90
5364;DHT22;2705;41.410;2.160;2023-05-07T12:39:05;24.00;99.90
5364;DHT22;2705;41.410;2.160;2023-05-07T12:41:43;23.80;99.90
5364;DHT22;2705;41.410;2.160;2023-05-07T12:44:22;24.00;99.90
5364;DHT22;2705;41.410;2.160;2023-05-07T12:46:52;24.10;99.90
5364;DHT22;2705;41.410;2.160;2023-05-07T12:49:23;23.90;99.90
5364;DHT22;2705;41.410;2.160;2023-05-07T12:51:53;23.90;99.90
5364;DHT22;2705;41.410;2.160;2023-05-07T12:54:29;24.20;99.90
5364;DHT22;2705;41.410;2.160;2023-05-07T12:57:03;24.30;99.90
5364;DHT22;2705;41.410;2.160;2023-05-07T12:59:35;24.30;99.90
5364;DHT22;2705;41.410;2.160;2023-05-07T13:02:05;24.40;99.90
5364;DHT22;2705;41.410;2.160;2023-05-07T13:04:37;24.10;99.90
5364;DHT22;2705;41.410;2.160;2023-05-07T13:07:07;23.90;99.90
5364;DHT22;2705;41.410;2.160;2023-05-07T13:09:36;23.70;99.90
5364;DHT22;2705;41.410;2.160;2023-05-07T13:12:05;23.70;99.90
5364;DHT22;2705;41.410;2.160;2023-05-07T13:14:34;23.70;99.90
5364;DHT22;2705;41.410;2.160;2023-05-07T13:17:03;24.10;99.90
5364;DHT22;2705;41.410;2.160;2023-05-07T13:19:32;24.40;99.90
5364;DHT22;2705;41.410;2.160;2023-05-07T13:22:03;24.00;99.90
5364;DHT22;2705;41.410;2.160;2023-05-07T13:24:32;23.60;99.90
5364;DHT22;2705;41.410;2.160;2023-05-07T13:27:01;23.30;99.90
5364;DHT22;2705;41.410;2.160;2023-05-07T13:29:30;22.80;99.90
5364;DHT22;2705;41.410;2.160;2023-05-07T13:31:59;22.90;99.90
5364;DHT22;2705;41.410;2.160;2023-05-07T13:34:28;23.50;99.90
5364;DHT22;2705;41.410;2.160;2023-05-07T13:36:58;23.70;99.90
5364;DHT22;2705;41.410;2.160;2023-05-07T13:39:28;23.70;99.90
5364;DHT22;2705;41.410;2.160;2023-05-07T13:41:58;23.50;99.90
5364;DHT22;2705;41.410;2.160;2023-05-07T13:44:27;23.90;99.90
5364;DHT22;2705;41.410;2.160;2023-05-07T13:46:56;23.70;99.90
5364;DHT22;2705;41.410;2.160;2023-05-07T13:49:25;24.20;99.90
5364;DHT22;2705;41.410;2.160;2023-05-07T13:51:54;24.30;99.90
5364;DHT22;2705;41.410;2.160;2023-05-07T13:54:24;24.20;99.90
5364;DHT22;2705;41.410;2.160;2023-05-07T13:56:54;24.50;99.90
5364;DHT22;2705;41.410;2.160;2023-05-07T13:59:23;24.70;99.90
5364;DHT22;2705;41.410;2.160;2023-05-07T14:01:53;24.60;99.90
5364;DHT22;2705;41.410;2.160;2023-05-07T14:04:22;24.50;99.90
5364;DHT22;2705;41.410;2.160;2023-05-07T14:06:52;24.00;99.90
5364;DHT22;2705;41.410;2.160;2023-05-07T14:09:21;23.90;99.90
5364;DHT22;2705;41.410;2.160;2023-05-07T14:11:50;23.80;99.90
5364;DHT22;2705;41.410;2.160;2023-05-07T14:14:21;23.80;99.90
5364;DHT22;2705;41.410;2.160;2023-05-07T14:16:50;24.20;99.90
5364;DHT22;2705;41.410;2.160;2023-05-07T14:19:19;24.20;99.90
5364;DHT22;2705;41.410;2.160;2023-05-07T14:21:51;24.40;99.90
5364;DHT22;2705;41.410;2.160;2023-05-07T14:24:20;24.50;99.90
5364;DHT22;2705;41.410;2.160;2023-05-07T14:27:04;24.10;99.90
5364;DHT22;2705;41.410;2.160;2023-05-07T14:29:35;24.30;99.90
5364;DHT22;2705;41.410;2.160;2023-05-07T14:32:05;24.20;99.90
5364;DHT22;2705;41.410;2.160;2023-05-07T14:34:34;24.00;99.90
5364;DHT22;2705;41.410;2.160;2023-05-07T14:37:03;23.90;99.90
5364;DHT22;2705;41.410;2.160;2023-05-07T14:39:32;24.30;99.90
5364;DHT22;2705;41.410;2.160;2023-05-07T14:42:01;24.30;99.90
5364;DHT22;2705;41.410;2.160;2023-05-07T14:44:30;24.70;99.90
5364;DHT22;2705;41.410;2.160;2023-05-07T14:47:02;24.00;99.90
5364;DHT22;2705;41.410;2.160;2023-05-07T14:49:31;24.40;99.90
5364;DHT22;2705;41.410;2.160;2023-05-07T14:52:00;23.90;99.90
5364;DHT22;2705;41.410;2.160;2023-05-07T14:54:29;24.10;99.90
5364;DHT22;2705;41.410;2.160;2023-05-07T14:56:58;24.00;99.90
5364;DHT22;2705;41.410;2.160;2023-05-07T14:59:27;23.90;99.90
5364;DHT22;2705;41.410;2.160;2023-05-07T15:01:57;23.90;99.90
5364;DHT22;2705;41.410;2.160;2023-05-07T15:04:28;23.20;99.90
5364;DHT22;2705;41.410;2.160;2023-05-07T15:06:57;23.50;99.90
5364;DHT22;2705;41.410;2.160;2023-05-07T15:09:26;23.40;99.90
5364;DHT22;2705;41.410;2.160;2023-05-07T15:11:56;23.40;99.90
5364;DHT22;2705;41.410;2.160;2023-05-07T15:14:25;23.50;99.90
5364;DHT22;2705;41.410;2.160;2023-05-07T15:16:54;23.00;99.90
5364;DHT22;2705;41.410;2.160;2023-05-07T15:19:24;23.00;99.90
5364;DHT22;2705;41.410;2.160;2023-05-07T15:21:59;23.20;99.90
5364;DHT22;2705;41.410;2.160;2023-05-07T15:24:30;23.30;99.90
5364;DHT22;2705;41.410;2.160;2023-05-07T15:27:00;23.00;99.90
5364;DHT22;2705;41.410;2.160;2023-05-07T15:29:30;22.70;99.90
5364;DHT22;2705;41.410;2.160;2023-05-07T15:32:00;22.60;99.90
5364;DHT22;2705;41.410;2.160;2023-05-07T15:34:30;22.40;99.90
5364;DHT22;2705;41.410;2.160;2023-05-07T15:37:01;22.20;99.90
5364;DHT22;2705;41.410;2.160;2023-05-07T15:39:31;22.10;99.90
5364;DHT22;2705;41.410;2.160;2023-05-07T15:42:00;22.20;99.90
5364;DHT22;2705;41.410;2.160;2023-05-07T15:44:30;22.30;99.90
5364;DHT22;2705;41.410;2.160;2023-05-07T15:47:02;22.70;99.90
5364;DHT22;2705;41.410;2.160;2023-05-07T15:49:32;22.60;99.90
5364;DHT22;2705;41.410;2.160;2023-05-07T15:52:03;22.70;99.90
5364;DHT22;2705;41.410;2.160;2023-05-07T15:54:32;22.50;99.90
5364;DHT22;2705;41.410;2.160;2023-05-07T15:57:01;22.40;99.90
5364;DHT22;2705;41.410;2.160;2023-05-07T15:59:30;22.70;99.90
5364;DHT22;2705;41.410;2.160;2023-05-07T16:02:00;22.80;99.90
5364;DHT22;2705;41.410;2.160;2023-05-07T16:04:29;22.50;99.90
5364;DHT22;2705;41.410;2.160;2023-05-07T16:06:58;22.70;99.90
5364;DHT22;2705;41.410;2.160;2023-05-07T16:09:29;22.30;99.90
5364;DHT22;2705;41.410;2.160;2023-05-07T16:11:59;22.40;99.90
5364;DHT22;2705;41.410;2.160;2023-05-07T16:14:28;22.40;99.90
5364;DHT22;2705;41.410;2.160;2023-05-07T16:16:58;22.20;99.90
5364;DHT22;2705;41.410;2.160;2023-05-07T16:19:27;22.10;99.90
5364;DHT22;2705;41.410;2.160;2023-05-07T16:21:57;22.10;99.90
5364;DHT22;2705;41.410;2.160;2023-05-07T16:24:26;21.90;99.90
5364;DHT22;2705;41.410;2.160;2023-05-07T16:26:56;21.80;99.90
5364;DHT22;2705;41.410;2.160;2023-05-07T16:29:25;22.10;99.90